Llanberis, United Kingdom
Current Conditions -  °F | °C
As of 5:50 AM on Friday 28 Nov 2014 (Local Time) from EGOV Reporting Station
Clear Clear  
Wind Chill: 41°   Ceiling: Unl
Heat Index: 45°   Visibility: 6mi
Dew Point: 41°   Wind: 6mph
Humidity: 87%   Direction: 40°NE
Pressure: 29.53"   Gusts: NA
Location:  53.12°N, 4.13°W
Report Text: EGOV 280550Z 04005KT CAVOK 07/05 Q1000 BLU
Loading
Personal Weather Stations






























Interactive Weather Map New forecast layout! Learn more

10-Day Weather Forecast

Advertisements
Track Severe Weather on mobile